KMGE/MGE METAR and TAF weather

Enter ICAO airport designator
Station Type Date Time Source
KMGE METAR 2019/06/18 15:12 UTC NOAA

KMGE 181512Z 19004KT 7SM SCT011 BKN022CB BKN080 BKN250 25/23 A3003 RMK AO2A CB 8S MOV E $


Station Type Date Time Source
KMGE Decoded METAR 2019/06/18 15:12 UTC NOAA

Marietta / Dobbins Air Force Base, GA, United States (KMGE) 33-55N 084-31W 326M
Jun 18, 2019 - 11:12 AM EDT / 2019.06.18 1512 UTC
Wind: from the S (190 degrees) at 5 MPH (4 KT):0
Visibility: 7 mile(s):0
Sky conditions: mostly cloudy
Weather: Cumulonimbus clouds observed
Temperature: 77 F (25 C)
Dew Point: 73 F (23 C)
Relative Humidity: 88%
Pressure (altimeter): 30.03 in. Hg (1016 hPa)
ob: KMGE 181512Z 19004KT 7SM SCT011 BKN022CB BKN080 BKN250 25/23 A3003 RMK AO2A CB 8S MOV E
cycle: 15

Station Type Date Time Source
KMGE TAF 2019/06/18 13:06 UTC NOAA

TAF TAF KMGE 181300Z 1813/1919 VRB05KT 9999 VCSH BKN015 BKN250 QNH3000INS
BECMG 1814/1815 22007KT 9999 VCTS BKN020CB BKN250 QNH3000INS
BECMG 1817/1818 22009KT 9999 VCTS BKN035CB BKN250 QNH2992INS
BECMG 1904/1905 20005KT 8000 BR BKN015 OVC030 QNH2992INS
BECMG 1909/1910 22005KT 4800 BR OVC006 QNH2995INS
BECMG 1914/1915 24012KT 9999 VCSH BKN020 OVC040 QNH2985INS TX29/1821Z TN21/1911Z

Example: see airport list